sensor_id;sensor_type;location;lat;lon;timestamp;temperature;humidity
2945;DHT22;1482;51.398;7.128;2023-03-24T00:00:16;11.40;99.90
2945;DHT22;1482;51.398;7.128;2023-03-24T00:02:43;11.40;99.90
2945;DHT22;1482;51.398;7.128;2023-03-24T00:05:13;11.40;99.90
2945;DHT22;1482;51.398;7.128;2023-03-24T00:07:40;11.40;99.90
2945;DHT22;1482;51.398;7.128;2023-03-24T00:10:13;11.40;99.90
2945;DHT22;1482;51.398;7.128;2023-03-24T00:12:40;11.30;99.90
2945;DHT22;1482;51.398;7.128;2023-03-24T00:15:09;11.40;99.90
2945;DHT22;1482;51.398;7.128;2023-03-24T00:17:35;11.40;99.90
2945;DHT22;1482;51.398;7.128;2023-03-24T00:20:03;11.40;99.90
2945;DHT22;1482;51.398;7.128;2023-03-24T00:22:32;11.30;99.90
2945;DHT22;1482;51.398;7.128;2023-03-24T00:24:58;11.40;99.90
2945;DHT22;1482;51.398;7.128;2023-03-24T00:27:23;11.40;99.90
2945;DHT22;1482;51.398;7.128;2023-03-24T00:29:49;11.40;1.00
2945;DHT22;1482;51.398;7.128;2023-03-24T00:32:15;11.30;1.00
2945;DHT22;1482;51.398;7.128;2023-03-24T00:34:41;11.40;1.00
2945;DHT22;1482;51.398;7.128;2023-03-24T00:37:08;11.40;1.00
2945;DHT22;1482;51.398;7.128;2023-03-24T00:39:33;11.40;99.90
2945;DHT22;1482;51.398;7.128;2023-03-24T00:42:00;11.40;1.00
2945;DHT22;1482;51.398;7.128;2023-03-24T00:44:26;11.40;99.90
2945;DHT22;1482;51.398;7.128;2023-03-24T00:46:52;11.40;99.90
2945;DHT22;1482;51.398;7.128;2023-03-24T00:49:22;11.40;99.90
2945;DHT22;1482;51.398;7.128;2023-03-24T00:52:11;11.50;99.90
2945;DHT22;1482;51.398;7.128;2023-03-24T00:54:39;11.50;99.90
2945;DHT22;1482;51.398;7.128;2023-03-24T00:57:06;11.50;99.90
2945;DHT22;1482;51.398;7.128;2023-03-24T00:59:31;11.50;1.00
2945;DHT22;1482;51.398;7.128;2023-03-24T01:02:02;11.40;1.00
2945;DHT22;1482;51.398;7.128;2023-03-24T01:04:28;11.40;1.00
2945;DHT22;1482;51.398;7.128;2023-03-24T01:06:55;11.40;1.00
2945;DHT22;1482;51.398;7.128;2023-03-24T01:09:22;11.40;1.00
2945;DHT22;1482;51.398;7.128;2023-03-24T01:11:48;11.40;1.00
2945;DHT22;1482;51.398;7.128;2023-03-24T01:14:15;11.50;1.00
2945;DHT22;1482;51.398;7.128;2023-03-24T01:16:41;11.50;1.00
2945;DHT22;1482;51.398;7.128;2023-03-24T01:19:07;11.60;1.00
2945;DHT22;1482;51.398;7.128;2023-03-24T01:21:37;11.50;1.00
2945;DHT22;1482;51.398;7.128;2023-03-24T01:24:04;11.50;1.00
2945;DHT22;1482;51.398;7.128;2023-03-24T01:26:30;11.50;1.00
2945;DHT22;1482;51.398;7.128;2023-03-24T01:28:55;11.50;1.00
2945;DHT22;1482;51.398;7.128;2023-03-24T01:31:21;11.40;99.90
2945;DHT22;1482;51.398;7.128;2023-03-24T01:33:47;11.40;99.90
2945;DHT22;1482;51.398;7.128;2023-03-24T01:36:12;11.30;99.90
2945;DHT22;1482;51.398;7.128;2023-03-24T01:38:38;11.30;99.90
2945;DHT22;1482;51.398;7.128;2023-03-24T01:41:04;11.30;99.90
2945;DHT22;1482;51.398;7.128;2023-03-24T01:43:32;11.40;99.90
2945;DHT22;1482;51.398;7.128;2023-03-24T01:48:54;11.50;99.90
2945;DHT22;1482;51.398;7.128;2023-03-24T01:51:43;11.60;99.90
2945;DHT22;1482;51.398;7.128;2023-03-24T01:54:16;11.60;80.80
2945;DHT22;1482;51.398;7.128;2023-03-24T01:56:46;11.60;94.50
2945;DHT22;1482;51.398;7.128;2023-03-24T01:59:17;11.60;7.80
2945;DHT22;1482;51.398;7.128;2023-03-24T02:01:45;11.60;2.60
2945;DHT22;1482;51.398;7.128;2023-03-24T02:04:11;11.50;1.00
2945;DHT22;1482;51.398;7.128;2023-03-24T02:06:41;11.50;2.10
2945;DHT22;1482;51.398;7.128;2023-03-24T02:09:09;11.50;8.20
2945;DHT22;1482;51.398;7.128;2023-03-24T02:11:36;11.60;1.00
2945;DHT22;1482;51.398;7.128;2023-03-24T02:14:03;11.70;1.00
2945;DHT22;1482;51.398;7.128;2023-03-24T02:27:15;11.60;99.90
2945;DHT22;1482;51.398;7.128;2023-03-24T02:30:06;11.70;99.90
2945;DHT22;1482;51.398;7.128;2023-03-24T02:35:42;11.60;99.90
2945;DHT22;1482;51.398;7.128;2023-03-24T02:43:56;11.70;99.90
2945;DHT22;1482;51.398;7.128;2023-03-24T02:46:48;11.60;99.90
2945;DHT22;1482;51.398;7.128;2023-03-24T02:49:27;11.60;99.90
2945;DHT22;1482;51.398;7.128;2023-03-24T02:55:12;11.70;99.90
2945;DHT22;1482;51.398;7.128;2023-03-24T03:00:31;11.80;99.90
2945;DHT22;1482;51.398;7.128;2023-03-24T03:03:07;11.80;47.80
2945;DHT22;1482;51.398;7.128;2023-03-24T03:05:38;11.80;11.70
2945;DHT22;1482;51.398;7.128;2023-03-24T03:08:08;11.80;3.10
2945;DHT22;1482;51.398;7.128;2023-03-24T03:10:40;11.80;1.00
2945;DHT22;1482;51.398;7.128;2023-03-24T03:13:20;11.90;1.00
2945;DHT22;1482;51.398;7.128;2023-03-24T03:15:51;12.00;1.00
2945;DHT22;1482;51.398;7.128;2023-03-24T03:18:23;12.00;1.00
2945;DHT22;1482;51.398;7.128;2023-03-24T03:20:57;12.00;99.90
2945;DHT22;1482;51.398;7.128;2023-03-24T03:23:28;12.10;1.00
2945;DHT22;1482;51.398;7.128;2023-03-24T03:25:59;12.00;99.90
2945;DHT22;1482;51.398;7.128;2023-03-24T03:28:34;12.10;99.90
2945;DHT22;1482;51.398;7.128;2023-03-24T03:31:05;12.10;99.90
2945;DHT22;1482;51.398;7.128;2023-03-24T03:33:37;12.10;99.90
2945;DHT22;1482;51.398;7.128;2023-03-24T03:36:16;12.20;1.00
2945;DHT22;1482;51.398;7.128;2023-03-24T03:39:00;12.20;1.00
2945;DHT22;1482;51.398;7.128;2023-03-24T03:41:28;12.20;1.00
2945;DHT22;1482;51.398;7.128;2023-03-24T03:43:54;12.30;99.90
2945;DHT22;1482;51.398;7.128;2023-03-24T03:46:20;12.30;1.00
2945;DHT22;1482;51.398;7.128;2023-03-24T03:48:46;12.40;1.00
2945;DHT22;1482;51.398;7.128;2023-03-24T03:51:13;12.50;1.00
2945;DHT22;1482;51.398;7.128;2023-03-24T03:54:01;12.40;99.90
2945;DHT22;1482;51.398;7.128;2023-03-24T03:56:30;12.40;33.90
2945;DHT22;1482;51.398;7.128;2023-03-24T03:58:56;12.40;99.90
2945;DHT22;1482;51.398;7.128;2023-03-24T04:01:25;12.30;99.90
2945;DHT22;1482;51.398;7.128;2023-03-24T04:15:08;12.20;74.30
2945;DHT22;1482;51.398;7.128;2023-03-24T04:18:10;12.10;99.90
2945;DHT22;1482;51.398;7.128;2023-03-24T04:21:05;12.00;99.90
2945;DHT22;1482;51.398;7.128;2023-03-24T04:23:46;12.10;99.90
2945;DHT22;1482;51.398;7.128;2023-03-24T04:26:26;12.20;99.90
2945;DHT22;1482;51.398;7.128;2023-03-24T04:29:27;12.30;71.20
2945;DHT22;1482;51.398;7.128;2023-03-24T04:32:07;12.50;1.00
2945;DHT22;1482;51.398;7.128;2023-03-24T04:34:38;12.50;1.00
2945;DHT22;1482;51.398;7.128;2023-03-24T04:37:15;12.60;1.00
2945;DHT22;1482;51.398;7.128;2023-03-24T04:39:44;12.70;1.00
2945;DHT22;1482;51.398;7.128;2023-03-24T04:42:15;12.60;1.00
2945;DHT22;1482;51.398;7.128;2023-03-24T04:44:42;12.50;1.00
2945;DHT22;1482;51.398;7.128;2023-03-24T04:47:09;12.50;1.00
2945;DHT22;1482;51.398;7.128;2023-03-24T04:49:37;12.40;1.00
2945;DHT22;1482;51.398;7.128;2023-03-24T04:52:04;12.40;1.00
2945;DHT22;1482;51.398;7.128;2023-03-24T04:54:31;12.40;1.00
2945;DHT22;1482;51.398;7.128;2023-03-24T04:56:57;12.30;1.00
2945;DHT22;1482;51.398;7.128;2023-03-24T04:59:24;12.20;1.00
2945;DHT22;1482;51.398;7.128;2023-03-24T05:01:50;12.30;1.00
2945;DHT22;1482;51.398;7.128;2023-03-24T05:04:22;12.20;99.90
2945;DHT22;1482;51.398;7.128;2023-03-24T05:06:48;12.20;22.60
2945;DHT22;1482;51.398;7.128;2023-03-24T05:09:15;12.10;1.00
2945;DHT22;1482;51.398;7.128;2023-03-24T05:11:42;12.20;99.90
2945;DHT22;1482;51.398;7.128;2023-03-24T05:14:08;12.20;1.00
2945;DHT22;1482;51.398;7.128;2023-03-24T05:16:34;12.30;1.00
2945;DHT22;1482;51.398;7.128;2023-03-24T05:19:00;12.30;99.90
2945;DHT22;1482;51.398;7.128;2023-03-24T05:21:26;12.30;99.90
2945;DHT22;1482;51.398;7.128;2023-03-24T05:23:52;12.20;99.90
2945;DHT22;1482;51.398;7.128;2023-03-24T05:26:17;12.20;95.20
2945;DHT22;1482;51.398;7.128;2023-03-24T05:28:43;12.20;99.90
2945;DHT22;1482;51.398;7.128;2023-03-24T05:31:09;12.10;99.90
2945;DHT22;1482;51.398;7.128;2023-03-24T05:33:34;12.00;99.90
2945;DHT22;1482;51.398;7.128;2023-03-24T05:36:00;12.10;99.90
2945;DHT22;1482;51.398;7.128;2023-03-24T05:38:25;12.00;1.00
2945;DHT22;1482;51.398;7.128;2023-03-24T05:40:54;12.00;1.00
2945;DHT22;1482;51.398;7.128;2023-03-24T05:43:20;12.00;1.00
2945;DHT22;1482;51.398;7.128;2023-03-24T05:45:45;11.90;1.00
2945;DHT22;1482;51.398;7.128;2023-03-24T05:48:11;12.00;1.00
2945;DHT22;1482;51.398;7.128;2023-03-24T05:50:36;12.00;1.00
2945;DHT22;1482;51.398;7.128;2023-03-24T05:53:02;12.00;99.90
2945;DHT22;1482;51.398;7.128;2023-03-24T05:55:28;12.00;99.90
2945;DHT22;1482;51.398;7.128;2023-03-24T05:57:54;12.00;15.80
2945;DHT22;1482;51.398;7.128;2023-03-24T06:00:20;12.00;1.00
2945;DHT22;1482;51.398;7.128;2023-03-24T06:02:47;12.00;1.00
2945;DHT22;1482;51.398;7.128;2023-03-24T06:05:13;11.80;1.00
2945;DHT22;1482;51.398;7.128;2023-03-24T06:07:39;11.80;1.00
2945;DHT22;1482;51.398;7.128;2023-03-24T06:10:07;11.80;1.00
2945;DHT22;1482;51.398;7.128;2023-03-24T06:12:35;11.80;1.00
2945;DHT22;1482;51.398;7.128;2023-03-24T06:15:01;11.80;99.90
2945;DHT22;1482;51.398;7.128;2023-03-24T06:17:29;11.90;99.90
2945;DHT22;1482;51.398;7.128;2023-03-24T06:19:55;11.90;99.90
2945;DHT22;1482;51.398;7.128;2023-03-24T06:22:28;11.90;99.90
2945;DHT22;1482;51.398;7.128;2023-03-24T06:24:54;12.00;99.90
2945;DHT22;1482;51.398;7.128;2023-03-24T06:27:21;12.00;99.90
2945;DHT22;1482;51.398;7.128;2023-03-24T06:29:51;12.40;99.90
2945;DHT22;1482;51.398;7.128;2023-03-24T06:32:18;12.50;99.90
2945;DHT22;1482;51.398;7.128;2023-03-24T06:34:44;12.60;99.90
2945;DHT22;1482;51.398;7.128;2023-03-24T06:37:09;12.60;99.90
2945;DHT22;1482;51.398;7.128;2023-03-24T06:39:35;12.60;99.90
2945;DHT22;1482;51.398;7.128;2023-03-24T06:42:00;12.40;99.90
2945;DHT22;1482;51.398;7.128;2023-03-24T06:44:26;12.10;99.90
2945;DHT22;1482;51.398;7.128;2023-03-24T06:46:52;12.70;99.90
2945;DHT22;1482;51.398;7.128;2023-03-24T06:49:17;13.40;99.90
2945;DHT22;1482;51.398;7.128;2023-03-24T06:51:43;13.40;99.90
2945;DHT22;1482;51.398;7.128;2023-03-24T06:54:08;13.60;99.90
2945;DHT22;1482;51.398;7.128;2023-03-24T06:56:34;15.50;46.60
2945;DHT22;1482;51.398;7.128;2023-03-24T06:58:59;16.30;1.00
2945;DHT22;1482;51.398;7.128;2023-03-24T07:01:25;17.40;1.00
2945;DHT22;1482;51.398;7.128;2023-03-24T07:03:51;17.80;1.00
2945;DHT22;1482;51.398;7.128;2023-03-24T07:06:18;17.30;1.00
2945;DHT22;1482;51.398;7.128;2023-03-24T07:08:43;17.70;1.00
2945;DHT22;1482;51.398;7.128;2023-03-24T07:11:10;19.20;1.00
2945;DHT22;1482;51.398;7.128;2023-03-24T07:13:36;21.70;1.00
2945;DHT22;1482;51.398;7.128;2023-03-24T07:16:02;23.40;1.00
2945;DHT22;1482;51.398;7.128;2023-03-24T07:18:28;23.90;1.00
2945;DHT22;1482;51.398;7.128;2023-03-24T07:20:53;23.60;1.00
2945;DHT22;1482;51.398;7.128;2023-03-24T07:23:19;22.50;1.00
2945;DHT22;1482;51.398;7.128;2023-03-24T07:25:45;21.80;1.00
2945;DHT22;1482;51.398;7.128;2023-03-24T07:28:10;20.70;1.00
2945;DHT22;1482;51.398;7.128;2023-03-24T07:30:36;20.80;1.00
2945;DHT22;1482;51.398;7.128;2023-03-24T07:33:06;21.60;1.00
2945;DHT22;1482;51.398;7.128;2023-03-24T07:35:32;22.60;1.00
2945;DHT22;1482;51.398;7.128;2023-03-24T07:37:58;23.00;1.00
2945;DHT22;1482;51.398;7.128;2023-03-24T07:40:24;22.70;1.00
2945;DHT22;1482;51.398;7.128;2023-03-24T07:42:50;23.00;1.00
2945;DHT22;1482;51.398;7.128;2023-03-24T07:45:16;23.80;1.00
2945;DHT22;1482;51.398;7.128;2023-03-24T07:47:45;25.90;1.00
2945;DHT22;1482;51.398;7.128;2023-03-24T07:50:12;26.50;1.00
2945;DHT22;1482;51.398;7.128;2023-03-24T07:52:40;27.70;1.00
2945;DHT22;1482;51.398;7.128;2023-03-24T07:55:07;30.00;13.20
2945;DHT22;1482;51.398;7.128;2023-03-24T07:57:34;30.70;17.80
2945;DHT22;1482;51.398;7.128;2023-03-24T08:00:06;30.90;23.60
2945;DHT22;1482;51.398;7.128;2023-03-24T08:02:52;31.00;18.70
2945;DHT22;1482;51.398;7.128;2023-03-24T08:05:18;32.00;25.30
2945;DHT22;1482;51.398;7.128;2023-03-24T08:07:47;30.10;11.20
2945;DHT22;1482;51.398;7.128;2023-03-24T08:10:21;29.10;2.00
2945;DHT22;1482;51.398;7.128;2023-03-24T08:12:47;29.50;6.40
2945;DHT22;1482;51.398;7.128;2023-03-24T08:15:13;29.60;6.00
2945;DHT22;1482;51.398;7.128;2023-03-24T08:17:40;29.00;1.00
2945;DHT22;1482;51.398;7.128;2023-03-24T08:20:07;28.80;1.00
2945;DHT22;1482;51.398;7.128;2023-03-24T08:22:36;29.90;1.20
2945;DHT22;1482;51.398;7.128;2023-03-24T08:25:04;30.00;1.90
2945;DHT22;1482;51.398;7.128;2023-03-24T08:27:30;31.90;9.90
2945;DHT22;1482;51.398;7.128;2023-03-24T08:29:56;33.90;22.40
2945;DHT22;1482;51.398;7.128;2023-03-24T08:32:21;30.50;8.00
2945;DHT22;1482;51.398;7.128;2023-03-24T08:34:47;30.70;4.40
2945;DHT22;1482;51.398;7.128;2023-03-24T08:37:13;28.80;1.00
2945;DHT22;1482;51.398;7.128;2023-03-24T08:39:38;30.00;1.00
2945;DHT22;1482;51.398;7.128;2023-03-24T08:42:04;29.70;1.00
2945;DHT22;1482;51.398;7.128;2023-03-24T08:44:29;29.40;1.00
2945;DHT22;1482;51.398;7.128;2023-03-24T08:46:55;27.90;1.00
2945;DHT22;1482;51.398;7.128;2023-03-24T08:49:21;26.80;1.00
2945;DHT22;1482;51.398;7.128;2023-03-24T08:51:46;25.40;1.00
2945;DHT22;1482;51.398;7.128;2023-03-24T08:54:12;24.20;1.00
2945;DHT22;1482;51.398;7.128;2023-03-24T08:56:38;23.40;1.00
2945;DHT22;1482;51.398;7.128;2023-03-24T08:59:04;23.10;1.00
2945;DHT22;1482;51.398;7.128;2023-03-24T09:01:31;23.90;1.00
2945;DHT22;1482;51.398;7.128;2023-03-24T09:03:58;24.50;1.00
2945;DHT22;1482;51.398;7.128;2023-03-24T09:06:24;24.30;1.00
2945;DHT22;1482;51.398;7.128;2023-03-24T09:08:52;23.60;1.00
2945;DHT22;1482;51.398;7.128;2023-03-24T09:11:19;22.90;1.00
2945;DHT22;1482;51.398;7.128;2023-03-24T09:13:46;23.10;1.00
2945;DHT22;1482;51.398;7.128;2023-03-24T09:16:12;22.10;1.00
2945;DHT22;1482;51.398;7.128;2023-03-24T09:18:38;22.00;1.00
2945;DHT22;1482;51.398;7.128;2023-03-24T09:21:04;22.00;1.00
2945;DHT22;1482;51.398;7.128;2023-03-24T09:23:30;22.00;1.00
2945;DHT22;1482;51.398;7.128;2023-03-24T09:25:56;22.30;1.00
2945;DHT22;1482;51.398;7.128;2023-03-24T09:28:22;22.00;1.00
2945;DHT22;1482;51.398;7.128;2023-03-24T09:30:48;21.90;1.00
2945;DHT22;1482;51.398;7.128;2023-03-24T09:33:14;22.20;1.00
2945;DHT22;1482;51.398;7.128;2023-03-24T09:35:40;21.70;1.00
2945;DHT22;1482;51.398;7.128;2023-03-24T09:38:06;20.80;1.00
2945;DHT22;1482;51.398;7.128;2023-03-24T09:40:36;20.70;1.00
2945;DHT22;1482;51.398;7.128;2023-03-24T09:43:13;20.60;1.00
2945;DHT22;1482;51.398;7.128;2023-03-24T09:45:49;20.10;1.00
2945;DHT22;1482;51.398;7.128;2023-03-24T09:48:27;19.90;1.00
2945;DHT22;1482;51.398;7.128;2023-03-24T09:53:48;18.80;1.00
2945;DHT22;1482;51.398;7.128;2023-03-24T09:56:20;18.00;1.00
2945;DHT22;1482;51.398;7.128;2023-03-24T09:58:53;18.10;1.00
2945;DHT22;1482;51.398;7.128;2023-03-24T10:01:23;18.00;1.00
2945;DHT22;1482;51.398;7.128;2023-03-24T10:03:49;18.10;1.00
2945;DHT22;1482;51.398;7.128;2023-03-24T10:06:19;18.30;1.00
2945;DHT22;1482;51.398;7.128;2023-03-24T10:09:06;18.30;1.00
2945;DHT22;1482;51.398;7.128;2023-03-24T10:11:41;18.00;1.00
2945;DHT22;1482;51.398;7.128;2023-03-24T10:19:57;17.50;1.00
2945;DHT22;1482;51.398;7.128;2023-03-24T10:22:32;17.30;1.00
2945;DHT22;1482;51.398;7.128;2023-03-24T10:30:28;16.50;1.00
2945;DHT22;1482;51.398;7.128;2023-03-24T10:32:54;16.60;1.00
2945;DHT22;1482;51.398;7.128;2023-03-24T10:35:34;16.60;1.00
2945;DHT22;1482;51.398;7.128;2023-03-24T10:38:05;16.50;1.00
2945;DHT22;1482;51.398;7.128;2023-03-24T10:40:35;16.50;1.00
2945;DHT22;1482;51.398;7.128;2023-03-24T10:43:03;16.60;1.00
2945;DHT22;1482;51.398;7.128;2023-03-24T10:45:32;16.80;1.00
2945;DHT22;1482;51.398;7.128;2023-03-24T10:47:59;16.80;1.00
2945;DHT22;1482;51.398;7.128;2023-03-24T10:50:27;17.20;1.00
2945;DHT22;1482;51.398;7.128;2023-03-24T10:52:54;16.90;1.00
2945;DHT22;1482;51.398;7.128;2023-03-24T10:55:22;17.00;1.00
2945;DHT22;1482;51.398;7.128;2023-03-24T10:57:51;17.10;1.00
2945;DHT22;1482;51.398;7.128;2023-03-24T11:03:04;17.40;1.00
2945;DHT22;1482;51.398;7.128;2023-03-24T11:05:36;17.70;1.00
2945;DHT22;1482;51.398;7.128;2023-03-24T11:10:39;18.20;1.00
2945;DHT22;1482;51.398;7.128;2023-03-24T11:13:16;18.20;1.00
2945;DHT22;1482;51.398;7.128;2023-03-24T11:18:34;17.40;1.00
2945;DHT22;1482;51.398;7.128;2023-03-24T11:21:04;17.40;1.00
2945;DHT22;1482;51.398;7.128;2023-03-24T11:23:38;17.40;1.00
2945;DHT22;1482;51.398;7.128;2023-03-24T11:26:17;17.30;1.00
2945;DHT22;1482;51.398;7.128;2023-03-24T11:28:49;17.10;1.00
2945;DHT22;1482;51.398;7.128;2023-03-24T11:31:23;17.20;1.00
2945;DHT22;1482;51.398;7.128;2023-03-24T11:33:57;17.30;1.00
2945;DHT22;1482;51.398;7.128;2023-03-24T11:39:00;17.30;1.00
2945;DHT22;1482;51.398;7.128;2023-03-24T11:41:26;17.30;1.00
2945;DHT22;1482;51.398;7.128;2023-03-24T11:46:45;17.10;1.00
2945;DHT22;1482;51.398;7.128;2023-03-24T11:49:12;17.30;1.00
2945;DHT22;1482;51.398;7.128;2023-03-24T11:51:42;17.50;1.00
2945;DHT22;1482;51.398;7.128;2023-03-24T11:54:16;17.70;1.00
2945;DHT22;1482;51.398;7.128;2023-03-24T11:56:49;17.60;1.00
2945;DHT22;1482;51.398;7.128;2023-03-24T12:04:40;17.60;1.00
2945;DHT22;1482;51.398;7.128;2023-03-24T12:10:35;17.00;1.00
2945;DHT22;1482;51.398;7.128;2023-03-24T12:13:11;16.70;1.00
2945;DHT22;1482;51.398;7.128;2023-03-24T12:24:05;17.00;1.00
2945;DHT22;1482;51.398;7.128;2023-03-24T12:26:34;16.90;1.00
2945;DHT22;1482;51.398;7.128;2023-03-24T12:29:16;16.60;1.00
2945;DHT22;1482;51.398;7.128;2023-03-24T12:42:43;17.30;1.00
2945;DHT22;1482;51.398;7.128;2023-03-24T12:45:23;17.30;1.00
2945;DHT22;1482;51.398;7.128;2023-03-24T12:59:02;16.50;1.00
2945;DHT22;1482;51.398;7.128;2023-03-24T13:01:40;16.50;1.00
2945;DHT22;1482;51.398;7.128;2023-03-24T13:06:43;16.20;1.00
2945;DHT22;1482;51.398;7.128;2023-03-24T13:09:18;16.20;1.00
2945;DHT22;1482;51.398;7.128;2023-03-24T13:12:11;16.20;1.00
2945;DHT22;1482;51.398;7.128;2023-03-24T13:20:13;15.70;1.00
2945;DHT22;1482;51.398;7.128;2023-03-24T13:22:41;15.70;1.00
2945;DHT22;1482;51.398;7.128;2023-03-24T13:25:26;15.50;1.00
2945;DHT22;1482;51.398;7.128;2023-03-24T13:27:56;15.40;1.00
2945;DHT22;1482;51.398;7.128;2023-03-24T13:30:38;15.20;1.00
2945;DHT22;1482;51.398;7.128;2023-03-24T13:33:11;14.80;1.00
2945;DHT22;1482;51.398;7.128;2023-03-24T13:38:52;14.70;1.00
2945;DHT22;1482;51.398;7.128;2023-03-24T13:41:20;14.50;1.00
2945;DHT22;1482;51.398;7.128;2023-03-24T13:43:51;14.40;1.00
2945;DHT22;1482;51.398;7.128;2023-03-24T13:46:22;14.40;1.00
2945;DHT22;1482;51.398;7.128;2023-03-24T13:48:54;14.70;1.00
2945;DHT22;1482;51.398;7.128;2023-03-24T13:53:54;14.80;1.00
2945;DHT22;1482;51.398;7.128;2023-03-24T13:56:25;14.60;1.00
2945;DHT22;1482;51.398;7.128;2023-03-24T14:01:40;14.90;1.00
2945;DHT22;1482;51.398;7.128;2023-03-24T14:04:25;15.20;1.00
2945;DHT22;1482;51.398;7.128;2023-03-24T14:06:56;15.40;1.00
2945;DHT22;1482;51.398;7.128;2023-03-24T14:09:26;15.50;1.00
2945;DHT22;1482;51.398;7.128;2023-03-24T14:14:26;15.80;1.00
2945;DHT22;1482;51.398;7.128;2023-03-24T14:17:11;15.90;1.00
2945;DHT22;1482;51.398;7.128;2023-03-24T14:22:33;16.10;1.00
2945;DHT22;1482;51.398;7.128;2023-03-24T14:25:03;15.70;1.00
2945;DHT22;1482;51.398;7.128;2023-03-24T14:27:37;15.70;1.00
2945;DHT22;1482;51.398;7.128;2023-03-24T14:32:58;14.90;1.00
2945;DHT22;1482;51.398;7.128;2023-03-24T14:35:35;14.20;1.00
2945;DHT22;1482;51.398;7.128;2023-03-24T14:38:23;13.70;1.00
2945;DHT22;1482;51.398;7.128;2023-03-24T14:40:58;13.60;1.00
2945;DHT22;1482;51.398;7.128;2023-03-24T14:43:51;13.70;1.00
2945;DHT22;1482;51.398;7.128;2023-03-24T14:52:10;14.00;1.00
2945;DHT22;1482;51.398;7.128;2023-03-24T14:54:37;14.00;1.00
2945;DHT22;1482;51.398;7.128;2023-03-24T14:57:05;14.10;1.00
2945;DHT22;1482;51.398;7.128;2023-03-24T15:05:15;14.30;1.00
2945;DHT22;1482;51.398;7.128;2023-03-24T15:07:42;14.20;1.00
2945;DHT22;1482;51.398;7.128;2023-03-24T15:10:18;14.30;1.00
2945;DHT22;1482;51.398;7.128;2023-03-24T15:12:48;14.20;3.10
2945;DHT22;1482;51.398;7.128;2023-03-24T15:15:20;14.20;28.50
2945;DHT22;1482;51.398;7.128;2023-03-24T15:17:46;14.30;33.20
2945;DHT22;1482;51.398;7.128;2023-03-24T15:20:30;14.30;22.40
2945;DHT22;1482;51.398;7.128;2023-03-24T15:23:07;14.30;27.80
2945;DHT22;1482;51.398;7.128;2023-03-24T15:25:33;14.30;38.40
2945;DHT22;1482;51.398;7.128;2023-03-24T15:27:58;14.20;32.20
2945;DHT22;1482;51.398;7.128;2023-03-24T15:30:24;14.10;34.60
2945;DHT22;1482;51.398;7.128;2023-03-24T15:32:50;14.00;39.90
2945;DHT22;1482;51.398;7.128;2023-03-24T15:35:21;13.70;32.70
2945;DHT22;1482;51.398;7.128;2023-03-24T15:37:51;13.70;41.80
2945;DHT22;1482;51.398;7.128;2023-03-24T15:42:58;13.50;40.70
2945;DHT22;1482;51.398;7.128;2023-03-24T15:45:29;13.60;60.60
2945;DHT22;1482;51.398;7.128;2023-03-24T15:47:56;13.50;58.20
2945;DHT22;1482;51.398;7.128;2023-03-24T15:50:55;13.30;58.30
2945;DHT22;1482;51.398;7.128;2023-03-24T15:53:27;13.30;78.60
2945;DHT22;1482;51.398;7.128;2023-03-24T15:56:15;13.20;41.90
2945;DHT22;1482;51.398;7.128;2023-03-24T15:58:53;13.20;46.40
2945;DHT22;1482;51.398;7.128;2023-03-24T16:01:24;13.30;33.90
2945;DHT22;1482;51.398;7.128;2023-03-24T16:04:04;13.10;41.00
2945;DHT22;1482;51.398;7.128;2023-03-24T16:06:33;13.30;48.70
2945;DHT22;1482;51.398;7.128;2023-03-24T16:09:07;13.30;64.20
2945;DHT22;1482;51.398;7.128;2023-03-24T16:11:35;13.20;82.30
2945;DHT22;1482;51.398;7.128;2023-03-24T16:14:01;12.80;99.90
2945;DHT22;1482;51.398;7.128;2023-03-24T16:16:36;12.30;99.90
2945;DHT22;1482;51.398;7.128;2023-03-24T16:19:02;12.10;99.90
2945;DHT22;1482;51.398;7.128;2023-03-24T16:21:29;11.80;99.90
2945;DHT22;1482;51.398;7.128;2023-03-24T16:23:56;11.60;99.90
2945;DHT22;1482;51.398;7.128;2023-03-24T16:28:49;11.40;99.90
2945;DHT22;1482;51.398;7.128;2023-03-24T16:31:29;11.20;99.90
2945;DHT22;1482;51.398;7.128;2023-03-24T16:33:56;10.90;99.90
2945;DHT22;1482;51.398;7.128;2023-03-24T16:36:22;10.70;99.90
2945;DHT22;1482;51.398;7.128;2023-03-24T16:38:51;10.80;99.90
2945;DHT22;1482;51.398;7.128;2023-03-24T16:41:17;10.60;99.90
2945;DHT22;1482;51.398;7.128;2023-03-24T16:43:44;10.60;99.90
2945;DHT22;1482;51.398;7.128;2023-03-24T16:46:31;10.60;99.90
2945;DHT22;1482;51.398;7.128;2023-03-24T16:48:57;10.50;99.90
2945;DHT22;1482;51.398;7.128;2023-03-24T16:51:23;10.40;99.90
2945;DHT22;1482;51.398;7.128;2023-03-24T16:53:49;10.50;99.90
2945;DHT22;1482;51.398;7.128;2023-03-24T16:56:17;10.60;99.90
2945;DHT22;1482;51.398;7.128;2023-03-24T16:58:43;10.50;99.90
2945;DHT22;1482;51.398;7.128;2023-03-24T17:01:25;10.50;99.90
2945;DHT22;1482;51.398;7.128;2023-03-24T17:03:52;10.50;99.90
2945;DHT22;1482;51.398;7.128;2023-03-24T17:06:19;10.60;99.90
2945;DHT22;1482;51.398;7.128;2023-03-24T17:08:45;10.60;99.90
2945;DHT22;1482;51.398;7.128;2023-03-24T17:11:11;10.60;99.90
2945;DHT22;1482;51.398;7.128;2023-03-24T17:13:36;10.60;99.90
2945;DHT22;1482;51.398;7.128;2023-03-24T17:16:02;10.60;99.90
2945;DHT22;1482;51.398;7.128;2023-03-24T17:18:28;10.60;99.90
2945;DHT22;1482;51.398;7.128;2023-03-24T17:20:53;10.60;99.90
2945;DHT22;1482;51.398;7.128;2023-03-24T17:23:19;10.60;99.90
2945;DHT22;1482;51.398;7.128;2023-03-24T17:25:46;10.60;99.90
2945;DHT22;1482;51.398;7.128;2023-03-24T17:28:15;10.50;99.90
2945;DHT22;1482;51.398;7.128;2023-03-24T17:30:41;10.50;99.90
2945;DHT22;1482;51.398;7.128;2023-03-24T17:33:11;10.60;99.90
2945;DHT22;1482;51.398;7.128;2023-03-24T17:35:37;10.60;99.90
2945;DHT22;1482;51.398;7.128;2023-03-24T17:38:02;10.50;99.90
2945;DHT22;1482;51.398;7.128;2023-03-24T17:40:28;10.40;99.90
2945;DHT22;1482;51.398;7.128;2023-03-24T17:42:53;10.30;99.90
2945;DHT22;1482;51.398;7.128;2023-03-24T17:45:19;10.40;99.90
2945;DHT22;1482;51.398;7.128;2023-03-24T17:47:45;10.30;99.90
2945;DHT22;1482;51.398;7.128;2023-03-24T17:50:12;10.30;99.90
2945;DHT22;1482;51.398;7.128;2023-03-24T17:52:41;10.30;99.90
2945;DHT22;1482;51.398;7.128;2023-03-24T17:55:07;10.30;99.90
2945;DHT22;1482;51.398;7.128;2023-03-24T17:57:33;10.20;99.90
2945;DHT22;1482;51.398;7.128;2023-03-24T17:59:59;10.20;99.90
2945;DHT22;1482;51.398;7.128;2023-03-24T18:02:25;10.10;99.90
2945;DHT22;1482;51.398;7.128;2023-03-24T18:04:50;10.00;99.90
2945;DHT22;1482;51.398;7.128;2023-03-24T18:07:16;9.90;99.90
2945;DHT22;1482;51.398;7.128;2023-03-24T18:09:42;10.00;99.90
2945;DHT22;1482;51.398;7.128;2023-03-24T18:12:07;9.80;99.90
2945;DHT22;1482;51.398;7.128;2023-03-24T18:14:33;9.80;99.90
2945;DHT22;1482;51.398;7.128;2023-03-24T18:16:58;9.70;99.90
2945;DHT22;1482;51.398;7.128;2023-03-24T18:19:25;9.60;99.90
2945;DHT22;1482;51.398;7.128;2023-03-24T18:21:50;9.60;99.90
2945;DHT22;1482;51.398;7.128;2023-03-24T18:24:16;9.60;99.90
2945;DHT22;1482;51.398;7.128;2023-03-24T18:26:42;9.50;99.90
2945;DHT22;1482;51.398;7.128;2023-03-24T18:29:07;9.50;99.90
2945;DHT22;1482;51.398;7.128;2023-03-24T18:31:33;9.50;99.90
2945;DHT22;1482;51.398;7.128;2023-03-24T18:33:59;9.40;99.90
2945;DHT22;1482;51.398;7.128;2023-03-24T18:36:25;9.40;99.90
2945;DHT22;1482;51.398;7.128;2023-03-24T18:38:58;9.40;99.90
2945;DHT22;1482;51.398;7.128;2023-03-24T18:41:25;9.40;99.90
2945;DHT22;1482;51.398;7.128;2023-03-24T18:43:53;9.30;99.90
2945;DHT22;1482;51.398;7.128;2023-03-24T18:46:19;9.30;1.00
2945;DHT22;1482;51.398;7.128;2023-03-24T18:48:45;9.30;99.90
2945;DHT22;1482;51.398;7.128;2023-03-24T18:51:13;9.30;99.90
2945;DHT22;1482;51.398;7.128;2023-03-24T18:53:40;9.40;99.90